VYMD/MDL METAR and TAF weather

Enter ICAO airport designator
Station Type Date Time Source
VYMD METAR 2024/07/23 12:30 UTC NOAA

VYMD 231230Z 19008KT 6000 SCT020 FEW025CB SCT110 32/25 Q0999


Station Type Date Time Source
VYMD Decoded METAR 2024/07/23 12:30 UTC NOAA

Station name not available
Jul 23, 2024 - 08:30 AM EDT / 2024.07.23 1230 UTC
Wind: from the S (190 degrees) at 9 MPH (8 KT):0
Visibility: 3 mile(s):0
Sky conditions: partly cloudy
Weather: Cumulonimbus clouds observed
Temperature: 89 F (32 C)
Heat index: 100.6 F (38.1 C):1
Dew Point: 77 F (25 C)
Relative Humidity: 66%
Pressure (altimeter): 29.50 in. Hg (0999 hPa)
ob: VYMD 231230Z 19008KT 6000 SCT020 FEW025CB SCT110 32/25 Q0999
cycle: 12

Station Type Date Time Source
VYMD TAF 2024/07/23 06:36 UTC NOAA